Hesperia, California
Current Conditions -  °F | °C
As of 6:35 PM on Wednesday 22 Oct 2014 (Local Time) from KVCV Reporting Station
Clear Clear  
Wind Chill: 73°   Ceiling: Unl
Heat Index: 73°   Visibility: 10mi
Dew Point: 23°   Wind: 3mph
Humidity: 15%   Direction: 350°N
Pressure: 30.03"   Gusts: NA
Location:  34.42°N, 117.31°W
Report Text: KVCV 230135Z AUTO 35003KT 10SM CLR 23/M05 A3003 RMK AO2
Loading
Personal Weather Stations






























Interactive Weather Map
Tropical Storm Tracking
New forecast layout! Learn more

10-Day Weather Forecast

Advertisements
Track Severe Weather on mobile